Tuckasegee, North Carolina
Current Conditions -  °F | °C
As of 1:36 AM on Tuesday 21 Oct 2014 (Local Time) from KAVL Reporting Station
Scattered Clouds Scattered Clouds  
Wind Chill: 48°   Ceiling: Unl
Heat Index: 48°   Visibility: 7mi
Dew Point: 46°   Wind: 3mph
Humidity: 93%   Direction: 320°NW
Pressure: 30.02"   Gusts: NA
Location:  35.27°N, 83.12°W
Report Text: KAVL 210536Z AUTO 32003KT 7SM SCT002 09/08 A3002 RMK AO2 T00890078
Loading
Personal Weather Stations






























Interactive Weather Map
Tropical Storm Tracking
New forecast layout! Learn more

10-Day Weather Forecast

Advertisements
Track Severe Weather on mobile